sensor_id;sensor_type;location;lat;lon;timestamp;P1;durP1;ratioP1;P2;durP2;ratioP2
63018;SDS011;49105;46.046;10.760;2023-04-09T00:02:12;2.92;;;2.83;;
63018;SDS011;49105;46.046;10.760;2023-04-09T00:04:37;3.85;;;3.75;;
63018;SDS011;49105;46.046;10.760;2023-04-09T00:07:06;3.20;;;3.10;;
63018;SDS011;49105;46.046;10.760;2023-04-09T00:09:31;3.20;;;3.10;;
63018;SDS011;49105;46.046;10.760;2023-04-09T00:12:03;3.65;;;3.45;;
63018;SDS011;49105;46.046;10.760;2023-04-09T00:17:06;3.63;;;3.53;;
63018;SDS011;49105;46.046;10.760;2023-04-09T00:22:12;3.50;;;3.40;;
63018;SDS011;49105;46.046;10.760;2023-04-09T00:24:37;2.90;;;2.80;;
63018;SDS011;49105;46.046;10.760;2023-04-09T00:27:06;3.20;;;3.10;;
63018;SDS011;49105;46.046;10.760;2023-04-09T00:29:31;3.30;;;3.20;;
63018;SDS011;49105;46.046;10.760;2023-04-09T00:32:03;3.90;;;3.80;;
63018;SDS011;49105;46.046;10.760;2023-04-09T00:34:37;3.20;;;3.10;;
63018;SDS011;49105;46.046;10.760;2023-04-09T00:37:03;3.50;;;3.40;;
63018;SDS011;49105;46.046;10.760;2023-04-09T00:39:34;4.07;;;3.97;;
63018;SDS011;49105;46.046;10.760;2023-04-09T00:42:00;3.05;;;2.95;;
63018;SDS011;49105;46.046;10.760;2023-04-09T00:44:40;3.50;;;3.40;;
63018;SDS011;49105;46.046;10.760;2023-04-09T00:47:06;3.85;;;3.75;;
63018;SDS011;49105;46.046;10.760;2023-04-09T00:49:37;3.38;;;3.28;;
63018;SDS011;49105;46.046;10.760;2023-04-09T00:52:03;3.60;;;3.50;;
63018;SDS011;49105;46.046;10.760;2023-04-09T00:54:38;3.40;;;3.30;;
63018;SDS011;49105;46.046;10.760;2023-04-09T00:57:12;3.33;;;3.22;;
63018;SDS011;49105;46.046;10.760;2023-04-09T00:59:48;3.70;;;3.60;;
63018;SDS011;49105;46.046;10.760;2023-04-09T01:02:13;3.58;;;3.47;;
63018;SDS011;49105;46.046;10.760;2023-04-09T01:04:48;3.50;;;3.40;;
63018;SDS011;49105;46.046;10.760;2023-04-09T01:15:53;3.45;;;3.35;;
63018;SDS011;49105;46.046;10.760;2023-04-09T01:21:42;3.33;;;3.22;;
63018;SDS011;49105;46.046;10.760;2023-04-09T01:24:20;3.67;;;3.58;;
63018;SDS011;49105;46.046;10.760;2023-04-09T01:27:11;3.90;;;3.80;;
63018;SDS011;49105;46.046;10.760;2023-04-09T01:29:40;3.40;;;3.30;;
63018;SDS011;49105;46.046;10.760;2023-04-09T01:32:10;3.70;;;3.60;;
63018;SDS011;49105;46.046;10.760;2023-04-09T01:34:47;3.90;;;3.80;;
63018;SDS011;49105;46.046;10.760;2023-04-09T01:37:25;3.45;;;3.35;;
63018;SDS011;49105;46.046;10.760;2023-04-09T01:40:01;3.60;;;3.50;;
63018;SDS011;49105;46.046;10.760;2023-04-09T01:42:28;3.63;;;3.53;;
63018;SDS011;49105;46.046;10.760;2023-04-09T01:45:03;3.75;;;3.65;;
63018;SDS011;49105;46.046;10.760;2023-04-09T01:47:30;3.47;;;3.38;;
63018;SDS011;49105;46.046;10.760;2023-04-09T01:50:02;3.58;;;3.38;;
63018;SDS011;49105;46.046;10.760;2023-04-09T01:52:28;3.40;;;3.30;;
63018;SDS011;49105;46.046;10.760;2023-04-09T01:54:53;3.47;;;3.38;;
63018;SDS011;49105;46.046;10.760;2023-04-09T01:57:19;3.58;;;3.47;;
63018;SDS011;49105;46.046;10.760;2023-04-09T01:59:57;3.60;;;3.50;;
63018;SDS011;49105;46.046;10.760;2023-04-09T02:02:41;3.60;;;3.50;;
63018;SDS011;49105;46.046;10.760;2023-04-09T02:05:34;3.60;;;3.50;;
63018;SDS011;49105;46.046;10.760;2023-04-09T02:08:11;3.60;;;3.50;;
63018;SDS011;49105;46.046;10.760;2023-04-09T02:10:52;3.85;;;3.75;;
63018;SDS011;49105;46.046;10.760;2023-04-09T02:13:20;3.58;;;3.47;;
63018;SDS011;49105;46.046;10.760;2023-04-09T02:15:58;3.40;;;3.30;;
63018;SDS011;49105;46.046;10.760;2023-04-09T02:18:26;3.40;;;3.30;;
63018;SDS011;49105;46.046;10.760;2023-04-09T02:21:02;3.30;;;3.20;;
63018;SDS011;49105;46.046;10.760;2023-04-09T02:23:35;3.38;;;3.28;;
63018;SDS011;49105;46.046;10.760;2023-04-09T02:26:10;3.40;;;3.30;;
63018;SDS011;49105;46.046;10.760;2023-04-09T02:28:47;3.45;;;3.35;;
63018;SDS011;49105;46.046;10.760;2023-04-09T02:31:19;3.50;;;3.40;;
63018;SDS011;49105;46.046;10.760;2023-04-09T02:33:44;3.83;;;3.72;;
63018;SDS011;49105;46.046;10.760;2023-04-09T02:36:19;3.50;;;3.40;;
63018;SDS011;49105;46.046;10.760;2023-04-09T02:38:47;3.70;;;3.60;;
63018;SDS011;49105;46.046;10.760;2023-04-09T02:41:12;3.72;;;3.63;;
63018;SDS011;49105;46.046;10.760;2023-04-09T02:43:38;3.80;;;3.70;;
63018;SDS011;49105;46.046;10.760;2023-04-09T02:46:03;3.90;;;3.80;;
63018;SDS011;49105;46.046;10.760;2023-04-09T02:48:38;3.75;;;3.65;;
63018;SDS011;49105;46.046;10.760;2023-04-09T02:51:12;3.60;;;3.50;;
63018;SDS011;49105;46.046;10.760;2023-04-09T02:53:38;3.75;;;3.65;;
63018;SDS011;49105;46.046;10.760;2023-04-09T02:59:26;3.75;;;3.65;;
63018;SDS011;49105;46.046;10.760;2023-04-09T03:01:58;3.65;;;3.55;;
63018;SDS011;49105;46.046;10.760;2023-04-09T03:04:24;3.50;;;3.40;;
63018;SDS011;49105;46.046;10.760;2023-04-09T03:06:59;3.70;;;3.60;;
63018;SDS011;49105;46.046;10.760;2023-04-09T03:09:30;3.28;;;3.17;;
63018;SDS011;49105;46.046;10.760;2023-04-09T03:12:02;3.10;;;3.00;;
63018;SDS011;49105;46.046;10.760;2023-04-09T03:16:53;3.33;;;3.22;;
63018;SDS011;49105;46.046;10.760;2023-04-09T03:19:29;3.92;;;3.72;;
63018;SDS011;49105;46.046;10.760;2023-04-09T03:21:55;3.80;;;3.70;;
63018;SDS011;49105;46.046;10.760;2023-04-09T03:24:32;3.50;;;3.40;;
63018;SDS011;49105;46.046;10.760;2023-04-09T03:27:00;3.53;;;3.42;;
63018;SDS011;49105;46.046;10.760;2023-04-09T03:29:37;3.05;;;2.95;;
63018;SDS011;49105;46.046;10.760;2023-04-09T03:32:14;3.55;;;3.45;;
63018;SDS011;49105;46.046;10.760;2023-04-09T03:34:47;3.50;;;3.40;;
63018;SDS011;49105;46.046;10.760;2023-04-09T03:37:21;3.00;;;2.90;;
63018;SDS011;49105;46.046;10.760;2023-04-09T03:39:56;3.63;;;3.42;;
63018;SDS011;49105;46.046;10.760;2023-04-09T03:45:09;3.33;;;3.22;;
63018;SDS011;49105;46.046;10.760;2023-04-09T03:47:34;3.38;;;3.28;;
63018;SDS011;49105;46.046;10.760;2023-04-09T03:50:09;3.92;;;3.72;;
63018;SDS011;49105;46.046;10.760;2023-04-09T03:52:34;2.95;;;2.85;;
63018;SDS011;49105;46.046;10.760;2023-04-09T03:55:12;3.00;;;2.90;;
63018;SDS011;49105;46.046;10.760;2023-04-09T03:57:49;3.30;;;3.20;;
63018;SDS011;49105;46.046;10.760;2023-04-09T04:00:21;3.72;;;3.63;;
63018;SDS011;49105;46.046;10.760;2023-04-09T04:02:52;2.92;;;2.83;;
63018;SDS011;49105;46.046;10.760;2023-04-09T04:05:24;2.80;;;2.70;;
63018;SDS011;49105;46.046;10.760;2023-04-09T04:07:50;2.88;;;2.78;;
63018;SDS011;49105;46.046;10.760;2023-04-09T04:10:19;3.03;;;2.92;;
63018;SDS011;49105;46.046;10.760;2023-04-09T04:12:47;3.13;;;3.03;;
63018;SDS011;49105;46.046;10.760;2023-04-09T04:17:58;3.00;;;2.90;;
63018;SDS011;49105;46.046;10.760;2023-04-09T04:20:31;2.80;;;2.70;;
63018;SDS011;49105;46.046;10.760;2023-04-09T04:22:57;3.33;;;3.22;;
63018;SDS011;49105;46.046;10.760;2023-04-09T04:25:23;3.08;;;2.97;;
63018;SDS011;49105;46.046;10.760;2023-04-09T04:27:55;3.55;;;3.45;;
63018;SDS011;49105;46.046;10.760;2023-04-09T04:30:32;3.00;;;2.90;;
63018;SDS011;49105;46.046;10.760;2023-04-09T04:36:19;3.00;;;2.90;;
63018;SDS011;49105;46.046;10.760;2023-04-09T04:38:45;3.05;;;2.95;;
63018;SDS011;49105;46.046;10.760;2023-04-09T04:41:19;3.00;;;2.90;;
63018;SDS011;49105;46.046;10.760;2023-04-09T04:43:45;2.50;;;2.50;;
63018;SDS011;49105;46.046;10.760;2023-04-09T04:46:17;3.05;;;2.95;;
63018;SDS011;49105;46.046;10.760;2023-04-09T04:48:53;2.80;;;2.70;;
63018;SDS011;49105;46.046;10.760;2023-04-09T04:51:29;2.58;;;2.58;;
63018;SDS011;49105;46.046;10.760;2023-04-09T04:53:55;3.35;;;3.25;;
63018;SDS011;49105;46.046;10.760;2023-04-09T04:56:30;3.00;;;2.90;;
63018;SDS011;49105;46.046;10.760;2023-04-09T04:59:08;3.45;;;3.35;;
63018;SDS011;49105;46.046;10.760;2023-04-09T05:01:42;3.15;;;3.05;;
63018;SDS011;49105;46.046;10.760;2023-04-09T05:04:08;3.50;;;3.40;;
63018;SDS011;49105;46.046;10.760;2023-04-09T05:06:33;3.17;;;3.08;;
63018;SDS011;49105;46.046;10.760;2023-04-09T05:08:59;3.30;;;3.20;;
63018;SDS011;49105;46.046;10.760;2023-04-09T05:11:25;2.92;;;2.83;;
63018;SDS011;49105;46.046;10.760;2023-04-09T05:14:03;3.28;;;3.17;;
63018;SDS011;49105;46.046;10.760;2023-04-09T05:16:30;3.30;;;3.20;;
63018;SDS011;49105;46.046;10.760;2023-04-09T05:19:04;3.47;;;3.38;;
63018;SDS011;49105;46.046;10.760;2023-04-09T05:21:31;3.30;;;3.20;;
63018;SDS011;49105;46.046;10.760;2023-04-09T05:23:56;3.58;;;3.47;;
63018;SDS011;49105;46.046;10.760;2023-04-09T05:26:23;4.07;;;3.97;;
63018;SDS011;49105;46.046;10.760;2023-04-09T05:28:51;3.80;;;3.60;;
63018;SDS011;49105;46.046;10.760;2023-04-09T05:31:17;3.53;;;3.42;;
63018;SDS011;49105;46.046;10.760;2023-04-09T05:33:52;3.33;;;3.22;;
63018;SDS011;49105;46.046;10.760;2023-04-09T05:36:27;3.45;;;3.35;;
63018;SDS011;49105;46.046;10.760;2023-04-09T05:39:02;3.75;;;3.65;;
63018;SDS011;49105;46.046;10.760;2023-04-09T05:41:33;3.55;;;3.45;;
63018;SDS011;49105;46.046;10.760;2023-04-09T05:44:04;3.45;;;3.25;;
63018;SDS011;49105;46.046;10.760;2023-04-09T05:46:33;4.00;;;3.83;;
63018;SDS011;49105;46.046;10.760;2023-04-09T05:49:07;3.50;;;3.40;;
63018;SDS011;49105;46.046;10.760;2023-04-09T05:51:33;3.45;;;3.25;;
63018;SDS011;49105;46.046;10.760;2023-04-09T05:54:08;3.40;;;3.30;;
63018;SDS011;49105;46.046;10.760;2023-04-09T05:56:43;4.05;;;3.95;;
63018;SDS011;49105;46.046;10.760;2023-04-09T05:59:09;3.53;;;3.42;;
63018;SDS011;49105;46.046;10.760;2023-04-09T06:01:46;3.10;;;3.00;;
63018;SDS011;49105;46.046;10.760;2023-04-09T06:04:13;3.30;;;3.20;;
63018;SDS011;49105;46.046;10.760;2023-04-09T06:06:47;3.50;;;3.40;;
63018;SDS011;49105;46.046;10.760;2023-04-09T06:12:35;3.33;;;3.10;;
63018;SDS011;49105;46.046;10.760;2023-04-09T06:15:10;3.40;;;3.20;;
63018;SDS011;49105;46.046;10.760;2023-04-09T06:17:35;3.63;;;3.50;;
63018;SDS011;49105;46.046;10.760;2023-04-09T06:20:08;3.22;;;3.13;;
63018;SDS011;49105;46.046;10.760;2023-04-09T06:22:34;3.10;;;3.00;;
63018;SDS011;49105;46.046;10.760;2023-04-09T06:25:00;3.08;;;2.97;;
63018;SDS011;49105;46.046;10.760;2023-04-09T06:27:25;3.42;;;3.33;;
63018;SDS011;49105;46.046;10.760;2023-04-09T06:29:57;3.15;;;3.05;;
63018;SDS011;49105;46.046;10.760;2023-04-09T06:32:31;3.20;;;3.10;;
63018;SDS011;49105;46.046;10.760;2023-04-09T06:34:57;3.45;;;3.35;;
63018;SDS011;49105;46.046;10.760;2023-04-09T06:37:37;3.40;;;3.30;;
63018;SDS011;49105;46.046;10.760;2023-04-09T06:40:09;3.10;;;3.00;;
63018;SDS011;49105;46.046;10.760;2023-04-09T06:42:38;3.85;;;3.75;;
63018;SDS011;49105;46.046;10.760;2023-04-09T06:45:09;3.33;;;3.22;;
63018;SDS011;49105;46.046;10.760;2023-04-09T06:47:35;2.90;;;2.80;;
63018;SDS011;49105;46.046;10.760;2023-04-09T06:50:07;3.10;;;3.00;;
63018;SDS011;49105;46.046;10.760;2023-04-09T06:52:32;3.47;;;3.38;;
63018;SDS011;49105;46.046;10.760;2023-04-09T06:55:07;3.03;;;2.92;;
63018;SDS011;49105;46.046;10.760;2023-04-09T06:57:33;3.10;;;3.00;;
63018;SDS011;49105;46.046;10.760;2023-04-09T07:00:07;2.92;;;2.83;;
63018;SDS011;49105;46.046;10.760;2023-04-09T07:02:40;2.83;;;2.72;;
63018;SDS011;49105;46.046;10.760;2023-04-09T07:05:10;2.67;;;2.60;;
63018;SDS011;49105;46.046;10.760;2023-04-09T07:10:20;3.20;;;3.10;;
63018;SDS011;49105;46.046;10.760;2023-04-09T07:12:45;3.40;;;3.30;;
63018;SDS011;49105;46.046;10.760;2023-04-09T07:15:20;2.70;;;2.65;;
63018;SDS011;49105;46.046;10.760;2023-04-09T07:17:50;3.40;;;3.30;;
63018;SDS011;49105;46.046;10.760;2023-04-09T07:20:27;3.50;;;3.20;;
63018;SDS011;49105;46.046;10.760;2023-04-09T07:23:02;3.25;;;3.15;;
63018;SDS011;49105;46.046;10.760;2023-04-09T07:25:39;2.80;;;2.70;;
63018;SDS011;49105;46.046;10.760;2023-04-09T07:28:13;3.13;;;3.03;;
63018;SDS011;49105;46.046;10.760;2023-04-09T07:30:39;2.72;;;2.70;;
63018;SDS011;49105;46.046;10.760;2023-04-09T07:33:14;2.85;;;2.75;;
63018;SDS011;49105;46.046;10.760;2023-04-09T07:35:45;2.13;;;2.13;;
63018;SDS011;49105;46.046;10.760;2023-04-09T07:38:11;2.40;;;2.40;;
63018;SDS011;49105;46.046;10.760;2023-04-09T07:40:45;2.40;;;2.40;;
63018;SDS011;49105;46.046;10.760;2023-04-09T07:43:14;2.40;;;2.30;;
63018;SDS011;49105;46.046;10.760;2023-04-09T07:49:04;2.25;;;2.25;;
63018;SDS011;49105;46.046;10.760;2023-04-09T07:51:30;2.22;;;2.22;;
63018;SDS011;49105;46.046;10.760;2023-04-09T07:54:02;2.45;;;2.40;;
63018;SDS011;49105;46.046;10.760;2023-04-09T07:56:36;2.00;;;2.00;;
63018;SDS011;49105;46.046;10.760;2023-04-09T07:59:08;2.10;;;2.10;;
63018;SDS011;49105;46.046;10.760;2023-04-09T08:01:45;1.80;;;1.80;;
63018;SDS011;49105;46.046;10.760;2023-04-09T08:04:11;2.63;;;2.53;;
63018;SDS011;49105;46.046;10.760;2023-04-09T08:06:46;3.40;;;3.17;;
63018;SDS011;49105;46.046;10.760;2023-04-09T08:09:20;2.00;;;2.00;;
63018;SDS011;49105;46.046;10.760;2023-04-09T08:11:46;2.00;;;2.00;;
63018;SDS011;49105;46.046;10.760;2023-04-09T08:14:13;1.80;;;1.80;;
63018;SDS011;49105;46.046;10.760;2023-04-09T08:16:39;1.85;;;1.75;;
63018;SDS011;49105;46.046;10.760;2023-04-09T08:19:07;1.90;;;1.90;;
63018;SDS011;49105;46.046;10.760;2023-04-09T08:21:40;2.10;;;2.03;;
63018;SDS011;49105;46.046;10.760;2023-04-09T08:24:15;1.70;;;1.70;;
63018;SDS011;49105;46.046;10.760;2023-04-09T08:26:48;1.80;;;1.77;;
63018;SDS011;49105;46.046;10.760;2023-04-09T08:29:14;1.85;;;1.85;;
63018;SDS011;49105;46.046;10.760;2023-04-09T08:31:48;1.88;;;1.77;;
63018;SDS011;49105;46.046;10.760;2023-04-09T08:34:26;3.70;;;2.17;;
63018;SDS011;49105;46.046;10.760;2023-04-09T08:37:01;1.58;;;1.58;;
63018;SDS011;49105;46.046;10.760;2023-04-09T08:39:32;1.60;;;1.60;;
63018;SDS011;49105;46.046;10.760;2023-04-09T08:42:07;1.80;;;1.80;;
63018;SDS011;49105;46.046;10.760;2023-04-09T08:44:45;2.00;;;2.00;;
63018;SDS011;49105;46.046;10.760;2023-04-09T08:47:11;2.05;;;2.05;;
63018;SDS011;49105;46.046;10.760;2023-04-09T08:49:40;1.90;;;1.80;;
63018;SDS011;49105;46.046;10.760;2023-04-09T08:52:12;1.60;;;1.60;;
63018;SDS011;49105;46.046;10.760;2023-04-09T08:54:43;1.58;;;1.58;;
63018;SDS011;49105;46.046;10.760;2023-04-09T08:57:09;1.70;;;1.70;;
63018;SDS011;49105;46.046;10.760;2023-04-09T08:59:43;1.60;;;1.60;;
63018;SDS011;49105;46.046;10.760;2023-04-09T09:02:09;1.85;;;1.85;;
63018;SDS011;49105;46.046;10.760;2023-04-09T09:07:13;1.70;;;1.70;;
63018;SDS011;49105;46.046;10.760;2023-04-09T09:17:54;1.92;;;1.80;;
63018;SDS011;49105;46.046;10.760;2023-04-09T09:20:21;1.60;;;1.58;;
63018;SDS011;49105;46.046;10.760;2023-04-09T09:25:37;1.83;;;1.80;;
63018;SDS011;49105;46.046;10.760;2023-04-09T09:28:10;1.30;;;1.30;;
63018;SDS011;49105;46.046;10.760;2023-04-09T09:30:42;2.13;;;2.05;;
63018;SDS011;49105;46.046;10.760;2023-04-09T09:33:10;1.58;;;1.58;;
63018;SDS011;49105;46.046;10.760;2023-04-09T09:35:46;2.25;;;2.15;;
63018;SDS011;49105;46.046;10.760;2023-04-09T09:38:17;2.42;;;1.95;;
63018;SDS011;49105;46.046;10.760;2023-04-09T09:40:52;1.58;;;1.58;;
63018;SDS011;49105;46.046;10.760;2023-04-09T09:43:24;1.50;;;1.50;;
63018;SDS011;49105;46.046;10.760;2023-04-09T09:45:59;2.15;;;2.15;;
63018;SDS011;49105;46.046;10.760;2023-04-09T09:48:31;1.70;;;1.70;;
63018;SDS011;49105;46.046;10.760;2023-04-09T09:53:42;2.10;;;1.80;;
63018;SDS011;49105;46.046;10.760;2023-04-09T09:56:18;1.38;;;1.38;;
63018;SDS011;49105;46.046;10.760;2023-04-09T09:58:53;1.60;;;1.60;;
63018;SDS011;49105;46.046;10.760;2023-04-09T10:01:25;3.25;;;1.80;;
63018;SDS011;49105;46.046;10.760;2023-04-09T10:04:01;1.55;;;1.55;;
63018;SDS011;49105;46.046;10.760;2023-04-09T10:06:28;1.55;;;1.55;;
63018;SDS011;49105;46.046;10.760;2023-04-09T10:08:57;1.70;;;1.70;;
63018;SDS011;49105;46.046;10.760;2023-04-09T10:11:31;1.33;;;1.33;;
63018;SDS011;49105;46.046;10.760;2023-04-09T10:14:05;1.63;;;1.63;;
63018;SDS011;49105;46.046;10.760;2023-04-09T10:16:33;1.58;;;1.58;;
63018;SDS011;49105;46.046;10.760;2023-04-09T10:19:08;1.67;;;1.67;;
63018;SDS011;49105;46.046;10.760;2023-04-09T10:21:50;4.60;;;1.83;;
63018;SDS011;49105;46.046;10.760;2023-04-09T10:24:22;1.90;;;1.80;;
63018;SDS011;49105;46.046;10.760;2023-04-09T10:27:07;2.65;;;2.45;;
63018;SDS011;49105;46.046;10.760;2023-04-09T10:29:46;2.08;;;1.98;;
63018;SDS011;49105;46.046;10.760;2023-04-09T10:32:19;1.90;;;1.83;;
63018;SDS011;49105;46.046;10.760;2023-04-09T10:34:56;3.20;;;2.50;;
63018;SDS011;49105;46.046;10.760;2023-04-09T10:37:29;1.75;;;1.75;;
63018;SDS011;49105;46.046;10.760;2023-04-09T10:39:57;1.85;;;1.85;;
63018;SDS011;49105;46.046;10.760;2023-04-09T10:42:31;1.40;;;1.40;;
63018;SDS011;49105;46.046;10.760;2023-04-09T10:47:41;1.38;;;1.38;;
63018;SDS011;49105;46.046;10.760;2023-04-09T10:50:18;1.75;;;1.75;;
63018;SDS011;49105;46.046;10.760;2023-04-09T10:52:55;1.42;;;1.42;;
63018;SDS011;49105;46.046;10.760;2023-04-09T10:55:32;1.60;;;1.60;;
63018;SDS011;49105;46.046;10.760;2023-04-09T11:01:19;1.40;;;1.40;;
63018;SDS011;49105;46.046;10.760;2023-04-09T11:04:06;1.40;;;1.40;;
63018;SDS011;49105;46.046;10.760;2023-04-09T11:06:49;1.40;;;1.40;;
63018;SDS011;49105;46.046;10.760;2023-04-09T11:09:19;1.40;;;1.40;;
63018;SDS011;49105;46.046;10.760;2023-04-09T11:11:50;1.48;;;1.48;;
63018;SDS011;49105;46.046;10.760;2023-04-09T11:14:23;1.80;;;1.70;;
63018;SDS011;49105;46.046;10.760;2023-04-09T11:16:52;1.40;;;1.40;;
63018;SDS011;49105;46.046;10.760;2023-04-09T11:19:19;1.88;;;1.88;;
63018;SDS011;49105;46.046;10.760;2023-04-09T11:21:53;2.30;;;2.20;;
63018;SDS011;49105;46.046;10.760;2023-04-09T11:24:38;1.40;;;1.40;;
63018;SDS011;49105;46.046;10.760;2023-04-09T11:27:12;1.50;;;1.50;;
63018;SDS011;49105;46.046;10.760;2023-04-09T11:29:44;1.60;;;1.60;;
63018;SDS011;49105;46.046;10.760;2023-04-09T11:32:12;2.03;;;1.92;;
63018;SDS011;49105;46.046;10.760;2023-04-09T11:34:44;1.58;;;1.58;;
63018;SDS011;49105;46.046;10.760;2023-04-09T11:37:13;1.52;;;1.52;;
63018;SDS011;49105;46.046;10.760;2023-04-09T11:39:42;1.80;;;1.77;;
63018;SDS011;49105;46.046;10.760;2023-04-09T11:42:17;1.80;;;1.80;;
63018;SDS011;49105;46.046;10.760;2023-04-09T11:44:49;1.40;;;1.40;;
63018;SDS011;49105;46.046;10.760;2023-04-09T11:47:25;1.30;;;1.30;;
63018;SDS011;49105;46.046;10.760;2023-04-09T11:49:51;1.60;;;1.60;;
63018;SDS011;49105;46.046;10.760;2023-04-09T11:52:17;1.73;;;1.73;;
63018;SDS011;49105;46.046;10.760;2023-04-09T11:54:58;1.88;;;1.77;;
63018;SDS011;49105;46.046;10.760;2023-04-09T12:00:13;1.67;;;1.67;;
63018;SDS011;49105;46.046;10.760;2023-04-09T12:02:50;1.98;;;1.98;;
63018;SDS011;49105;46.046;10.760;2023-04-09T12:05:24;1.60;;;1.60;;
63018;SDS011;49105;46.046;10.760;2023-04-09T12:07:55;1.30;;;1.30;;
63018;SDS011;49105;46.046;10.760;2023-04-09T12:10:29;1.45;;;1.45;;
63018;SDS011;49105;46.046;10.760;2023-04-09T12:13:06;1.58;;;1.58;;
63018;SDS011;49105;46.046;10.760;2023-04-09T12:15:38;1.63;;;1.63;;
63018;SDS011;49105;46.046;10.760;2023-04-09T12:18:07;1.92;;;1.92;;
63018;SDS011;49105;46.046;10.760;2023-04-09T12:20:43;1.52;;;1.52;;
63018;SDS011;49105;46.046;10.760;2023-04-09T12:23:11;1.60;;;1.60;;
63018;SDS011;49105;46.046;10.760;2023-04-09T12:25:46;1.65;;;1.65;;
63018;SDS011;49105;46.046;10.760;2023-04-09T12:28:12;1.88;;;1.88;;
63018;SDS011;49105;46.046;10.760;2023-04-09T12:30:46;1.58;;;1.58;;
63018;SDS011;49105;46.046;10.760;2023-04-09T12:36:34;1.90;;;1.88;;
63018;SDS011;49105;46.046;10.760;2023-04-09T12:39:09;2.10;;;2.00;;
63018;SDS011;49105;46.046;10.760;2023-04-09T12:41:38;1.60;;;1.60;;
63018;SDS011;49105;46.046;10.760;2023-04-09T12:44:03;1.58;;;1.58;;
63018;SDS011;49105;46.046;10.760;2023-04-09T12:46:38;1.60;;;1.60;;
63018;SDS011;49105;46.046;10.760;2023-04-09T12:49:09;1.67;;;1.58;;
63018;SDS011;49105;46.046;10.760;2023-04-09T12:51:35;1.85;;;1.85;;
63018;SDS011;49105;46.046;10.760;2023-04-09T12:54:00;1.40;;;1.40;;
63018;SDS011;49105;46.046;10.760;2023-04-09T12:56:28;1.40;;;1.40;;
63018;SDS011;49105;46.046;10.760;2023-04-09T12:59:02;1.23;;;1.23;;
63018;SDS011;49105;46.046;10.760;2023-04-09T13:01:34;1.20;;;1.20;;
63018;SDS011;49105;46.046;10.760;2023-04-09T13:03:59;1.60;;;1.60;;
63018;SDS011;49105;46.046;10.760;2023-04-09T13:06:34;1.17;;;1.17;;
63018;SDS011;49105;46.046;10.760;2023-04-09T13:09:08;1.17;;;1.17;;
63018;SDS011;49105;46.046;10.760;2023-04-09T13:11:40;1.25;;;1.25;;
63018;SDS011;49105;46.046;10.760;2023-04-09T13:14:07;1.48;;;1.48;;
63018;SDS011;49105;46.046;10.760;2023-04-09T13:16:40;1.65;;;1.65;;
63018;SDS011;49105;46.046;10.760;2023-04-09T13:19:06;1.65;;;1.65;;
63018;SDS011;49105;46.046;10.760;2023-04-09T13:21:42;1.45;;;1.45;;
63018;SDS011;49105;46.046;10.760;2023-04-09T13:24:16;1.40;;;1.40;;
63018;SDS011;49105;46.046;10.760;2023-04-09T13:26:48;1.45;;;1.45;;
63018;SDS011;49105;46.046;10.760;2023-04-09T13:29:13;1.30;;;1.30;;
63018;SDS011;49105;46.046;10.760;2023-04-09T13:31:39;1.10;;;1.10;;
63018;SDS011;49105;46.046;10.760;2023-04-09T13:34:05;1.30;;;1.30;;
63018;SDS011;49105;46.046;10.760;2023-04-09T13:36:37;1.90;;;1.80;;
63018;SDS011;49105;46.046;10.760;2023-04-09T13:41:36;1.20;;;1.20;;
63018;SDS011;49105;46.046;10.760;2023-04-09T13:44:02;1.52;;;1.42;;
63018;SDS011;49105;46.046;10.760;2023-04-09T13:46:28;2.22;;;2.05;;
63018;SDS011;49105;46.046;10.760;2023-04-09T13:48:57;1.52;;;1.52;;
63018;SDS011;49105;46.046;10.760;2023-04-09T13:51:22;1.63;;;1.63;;
63018;SDS011;49105;46.046;10.760;2023-04-09T13:53:51;1.58;;;1.58;;
63018;SDS011;49105;46.046;10.760;2023-04-09T13:56:25;1.35;;;1.35;;
63018;SDS011;49105;46.046;10.760;2023-04-09T13:58:51;1.30;;;1.30;;
63018;SDS011;49105;46.046;10.760;2023-04-09T14:01:22;1.60;;;1.60;;
63018;SDS011;49105;46.046;10.760;2023-04-09T14:04:00;2.13;;;2.03;;
63018;SDS011;49105;46.046;10.760;2023-04-09T14:06:35;2.08;;;1.98;;
63018;SDS011;49105;46.046;10.760;2023-04-09T14:09:01;2.03;;;1.92;;
63018;SDS011;49105;46.046;10.760;2023-04-09T14:14:21;2.20;;;2.10;;
63018;SDS011;49105;46.046;10.760;2023-04-09T14:16:46;1.92;;;1.90;;
63018;SDS011;49105;46.046;10.760;2023-04-09T14:19:12;2.67;;;2.55;;
63018;SDS011;49105;46.046;10.760;2023-04-09T14:21:44;2.00;;;1.92;;
63018;SDS011;49105;46.046;10.760;2023-04-09T14:26:54;1.85;;;1.85;;
63018;SDS011;49105;46.046;10.760;2023-04-09T14:29:20;7.57;;;2.45;;
63018;SDS011;49105;46.046;10.760;2023-04-09T14:31:46;2.28;;;2.17;;
63018;SDS011;49105;46.046;10.760;2023-04-09T14:34:19;1.73;;;1.73;;
63018;SDS011;49105;46.046;10.760;2023-04-09T14:36:48;1.60;;;1.60;;
63018;SDS011;49105;46.046;10.760;2023-04-09T14:39:23;2.10;;;2.03;;
63018;SDS011;49105;46.046;10.760;2023-04-09T14:41:49;1.90;;;1.90;;
63018;SDS011;49105;46.046;10.760;2023-04-09T14:44:15;2.13;;;2.10;;
63018;SDS011;49105;46.046;10.760;2023-04-09T14:46:48;1.63;;;1.63;;
63018;SDS011;49105;46.046;10.760;2023-04-09T14:49:20;3.03;;;2.47;;
63018;SDS011;49105;46.046;10.760;2023-04-09T14:51:45;2.13;;;2.03;;
63018;SDS011;49105;46.046;10.760;2023-04-09T14:54:15;1.98;;;1.98;;
63018;SDS011;49105;46.046;10.760;2023-04-09T14:56:40;1.60;;;1.60;;
63018;SDS011;49105;46.046;10.760;2023-04-09T14:59:06;1.80;;;1.80;;
63018;SDS011;49105;46.046;10.760;2023-04-09T15:01:35;4.18;;;2.45;;
63018;SDS011;49105;46.046;10.760;2023-04-09T15:04:09;2.33;;;2.25;;
63018;SDS011;49105;46.046;10.760;2023-04-09T15:06:41;2.58;;;2.47;;
63018;SDS011;49105;46.046;10.760;2023-04-09T15:09:06;2.53;;;2.42;;
63018;SDS011;49105;46.046;10.760;2023-04-09T15:11:35;3.78;;;3.47;;
63018;SDS011;49105;46.046;10.760;2023-04-09T15:14:00;2.22;;;2.13;;
63018;SDS011;49105;46.046;10.760;2023-04-09T15:16:27;1.90;;;1.90;;
63018;SDS011;49105;46.046;10.760;2023-04-09T15:19:04;2.00;;;2.00;;
63018;SDS011;49105;46.046;10.760;2023-04-09T15:21:33;9.82;;;3.55;;
63018;SDS011;49105;46.046;10.760;2023-04-09T15:23:58;1.98;;;1.98;;
63018;SDS011;49105;46.046;10.760;2023-04-09T15:26:25;1.85;;;1.85;;
63018;SDS011;49105;46.046;10.760;2023-04-09T15:28:51;2.10;;;2.10;;
63018;SDS011;49105;46.046;10.760;2023-04-09T15:31:19;2.42;;;2.30;;
63018;SDS011;49105;46.046;10.760;2023-04-09T15:33:45;2.20;;;2.10;;
63018;SDS011;49105;46.046;10.760;2023-04-09T15:36:18;1.60;;;1.60;;
63018;SDS011;49105;46.046;10.760;2023-04-09T15:38:51;2.80;;;2.60;;
63018;SDS011;49105;46.046;10.760;2023-04-09T15:41:24;2.38;;;2.28;;
63018;SDS011;49105;46.046;10.760;2023-04-09T15:43:53;1.92;;;1.92;;
63018;SDS011;49105;46.046;10.760;2023-04-09T15:49:41;2.42;;;2.33;;
63018;SDS011;49105;46.046;10.760;2023-04-09T15:52:13;2.00;;;2.00;;
63018;SDS011;49105;46.046;10.760;2023-04-09T15:54:38;2.15;;;2.05;;
63018;SDS011;49105;46.046;10.760;2023-04-09T15:57:10;2.03;;;2.03;;
63018;SDS011;49105;46.046;10.760;2023-04-09T15:59:47;3.15;;;2.33;;
63018;SDS011;49105;46.046;10.760;2023-04-09T16:02:12;2.08;;;2.08;;
63018;SDS011;49105;46.046;10.760;2023-04-09T16:04:38;1.80;;;1.80;;
63018;SDS011;49105;46.046;10.760;2023-04-09T16:07:09;2.40;;;2.30;;
63018;SDS011;49105;46.046;10.760;2023-04-09T16:12:09;2.35;;;2.25;;
63018;SDS011;49105;46.046;10.760;2023-04-09T16:14:41;2.00;;;2.00;;
63018;SDS011;49105;46.046;10.760;2023-04-09T16:19:31;6.60;;;2.88;;
63018;SDS011;49105;46.046;10.760;2023-04-09T16:22:06;3.40;;;3.17;;